Impacts TAF Board INFO
FOR SITUATIONAL AWARENESS. NOT TO BE USED FOR FLIGHT PLANNING PURPOSES.
IDs:

KMIA - Miami Intl, FL, US

Issued at 0301 UTC 22 Apr 2018
Updated at 0435 UTC 22 Apr 2018
Potential Impact None Slight Moderate High
Time0353Z 22/05Z 22/06Z 22/07Z 22/08Z 22/09Z 22/10Z 22/11Z 22/12Z 22/13Z 22/14Z 22/15Z 22/16Z 22/17Z>>
Type OBS PRVL PRVL PRVL PRVL PRVL PRVL PRVL PRVL PRVL PRVL PRVL PRVL PRVL
VIS 10 >6 >6 >6 >6 >6 >6 >6 >6 >6 >6 >6 >6 >6
CIG -- 35 35 35 35 35 35 35 35 35 45 45 45 45
Cover FEW BKN BKN BKN BKN BKN BKN BKN BKN BKN BKN BKN BKN BKN
FltCat VFR VFR VFR VFR VFR VFR VFR VFR VFR VFR VFR VFR VFR VFR
WX -- VCSH VCSH VCSH VCSH VCSH VCSH VCSH VCSH VCSH VCSH VCSH VCSH VCSH
WDir 90 100 100 100 100 100 100 100 100 100 110 110 110 110
WSpd 7 10 10 10 10 10 10 10 10 10 14 14 14 14
WGst -- -- -- -- -- -- -- -- -- -- -- -- -- --

Raw TAF
KMIA 220301Z 2203/2306 10010KT P6SM VCSH SCT020 BKN035
  FM221400 11014KT P6SM VCSH SCT025 BKN045
  FM222200 11012KT P6SM VCSH SCT025 BKN035


Raw METAR
KMIA 220353Z 09007KT 10SM FEW018 FEW025 25/22 A3011 RMK AO2 SLP195 T02500222 $
KMIA 220253Z 08010KT 10SM FEW020 25/22 A3011 RMK AO2 SLP197 T02500217 53010 $
KMIA 220153Z 06010KT 10SM FEW022 26/22 A3010 RMK AO2 SLP193 T02560217 $

METAR Board
Radar Display
Forecast Discussion

FOR SITUATIONAL AWARENESS. NOT TO BE USED FOR FLIGHT PLANNING PURPOSES.